sensor_id;sensor_type;location;lat;lon;timestamp;P1;durP1;ratioP1;P2;durP2;ratioP2
70838;SDS011;58464;52.298;4.852;2022-09-03T00:02:23;3.85;;;1.27;;
70838;SDS011;58464;52.298;4.852;2022-09-03T00:10:36;5.88;;;1.85;;
70838;SDS011;58464;52.298;4.852;2022-09-03T00:13:03;7.78;;;1.52;;
70838;SDS011;58464;52.298;4.852;2022-09-03T00:15:31;16.00;;;1.58;;
70838;SDS011;58464;52.298;4.852;2022-09-03T00:18:05;11.02;;;1.60;;
70838;SDS011;58464;52.298;4.852;2022-09-03T00:23:07;4.47;;;1.45;;
70838;SDS011;58464;52.298;4.852;2022-09-03T00:28:12;3.97;;;1.15;;
70838;SDS011;58464;52.298;4.852;2022-09-03T00:30:43;4.97;;;1.52;;
70838;SDS011;58464;52.298;4.852;2022-09-03T00:33:12;5.22;;;1.55;;
70838;SDS011;58464;52.298;4.852;2022-09-03T00:35:48;1.55;;;1.20;;
70838;SDS011;58464;52.298;4.852;2022-09-03T00:38:17;6.85;;;2.00;;
70838;SDS011;58464;52.298;4.852;2022-09-03T00:54:27;1.13;;;1.00;;
70838;SDS011;58464;52.298;4.852;2022-09-03T00:57:14;7.18;;;2.00;;
70838;SDS011;58464;52.298;4.852;2022-09-03T01:16:08;4.82;;;1.27;;
70838;SDS011;58464;52.298;4.852;2022-09-03T01:21:27;4.97;;;1.30;;
70838;SDS011;58464;52.298;4.852;2022-09-03T01:27:29;6.22;;;1.50;;
70838;SDS011;58464;52.298;4.852;2022-09-03T01:30:17;4.43;;;1.35;;
70838;SDS011;58464;52.298;4.852;2022-09-03T01:32:57;4.82;;;1.55;;
70838;SDS011;58464;52.298;4.852;2022-09-03T01:38:28;3.83;;;1.60;;
70838;SDS011;58464;52.298;4.852;2022-09-03T01:50:04;2.70;;;1.20;;
70838;SDS011;58464;52.298;4.852;2022-09-03T01:55:27;3.17;;;1.05;;
70838;SDS011;58464;52.298;4.852;2022-09-03T01:58:00;3.38;;;1.58;;
70838;SDS011;58464;52.298;4.852;2022-09-03T02:00:33;5.65;;;1.25;;
70838;SDS011;58464;52.298;4.852;2022-09-03T02:03:02;4.30;;;1.50;;
70838;SDS011;58464;52.298;4.852;2022-09-03T02:05:30;7.97;;;1.65;;
70838;SDS011;58464;52.298;4.852;2022-09-03T02:10:27;1.83;;;0.98;;
70838;SDS011;58464;52.298;4.852;2022-09-03T02:13:15;3.17;;;1.30;;
70838;SDS011;58464;52.298;4.852;2022-09-03T02:15:47;3.50;;;1.35;;
70838;SDS011;58464;52.298;4.852;2022-09-03T02:18:15;2.70;;;1.35;;
70838;SDS011;58464;52.298;4.852;2022-09-03T02:20:44;3.78;;;1.08;;
70838;SDS011;58464;52.298;4.852;2022-09-03T02:23:12;1.80;;;1.08;;
70838;SDS011;58464;52.298;4.852;2022-09-03T02:25:39;2.55;;;1.30;;
70838;SDS011;58464;52.298;4.852;2022-09-03T02:28:08;4.10;;;1.35;;
70838;SDS011;58464;52.298;4.852;2022-09-03T02:30:34;3.47;;;1.33;;
70838;SDS011;58464;52.298;4.852;2022-09-03T02:33:00;3.13;;;1.20;;
70838;SDS011;58464;52.298;4.852;2022-09-03T02:35:26;2.35;;;1.25;;
70838;SDS011;58464;52.298;4.852;2022-09-03T02:37:51;4.95;;;1.48;;
70838;SDS011;58464;52.298;4.852;2022-09-03T02:40:17;2.45;;;1.13;;
70838;SDS011;58464;52.298;4.852;2022-09-03T02:42:43;5.90;;;1.33;;
70838;SDS011;58464;52.298;4.852;2022-09-03T02:45:23;8.18;;;1.25;;
70838;SDS011;58464;52.298;4.852;2022-09-03T02:47:53;7.53;;;1.40;;
70838;SDS011;58464;52.298;4.852;2022-09-03T02:50:20;8.85;;;1.23;;
70838;SDS011;58464;52.298;4.852;2022-09-03T02:52:45;4.43;;;1.40;;
70838;SDS011;58464;52.298;4.852;2022-09-03T02:55:11;3.58;;;1.40;;
70838;SDS011;58464;52.298;4.852;2022-09-03T02:57:37;7.35;;;1.55;;
70838;SDS011;58464;52.298;4.852;2022-09-03T03:00:02;2.17;;;1.02;;
70838;SDS011;58464;52.298;4.852;2022-09-03T03:02:28;5.57;;;1.73;;
70838;SDS011;58464;52.298;4.852;2022-09-03T03:04:54;6.22;;;1.30;;
70838;SDS011;58464;52.298;4.852;2022-09-03T03:07:19;11.73;;;1.45;;
70838;SDS011;58464;52.298;4.852;2022-09-03T03:09:45;7.03;;;1.23;;
70838;SDS011;58464;52.298;4.852;2022-09-03T03:12:10;5.53;;;1.10;;
70838;SDS011;58464;52.298;4.852;2022-09-03T03:14:36;3.15;;;1.38;;
70838;SDS011;58464;52.298;4.852;2022-09-03T03:17:01;4.80;;;1.40;;
70838;SDS011;58464;52.298;4.852;2022-09-03T03:19:27;3.08;;;1.63;;
70838;SDS011;58464;52.298;4.852;2022-09-03T03:21:52;6.13;;;1.17;;
70838;SDS011;58464;52.298;4.852;2022-09-03T03:24:18;4.47;;;1.20;;
70838;SDS011;58464;52.298;4.852;2022-09-03T03:26:43;1.67;;;0.85;;
70838;SDS011;58464;52.298;4.852;2022-09-03T03:29:09;5.68;;;1.10;;
70838;SDS011;58464;52.298;4.852;2022-09-03T03:31:41;5.53;;;1.20;;
70838;SDS011;58464;52.298;4.852;2022-09-03T03:34:06;2.38;;;1.10;;
70838;SDS011;58464;52.298;4.852;2022-09-03T03:36:32;2.00;;;1.15;;
70838;SDS011;58464;52.298;4.852;2022-09-03T03:38:57;4.10;;;1.40;;
70838;SDS011;58464;52.298;4.852;2022-09-03T03:41:28;3.38;;;1.38;;
70838;SDS011;58464;52.298;4.852;2022-09-03T03:43:58;4.33;;;1.50;;
70838;SDS011;58464;52.298;4.852;2022-09-03T03:46:28;3.40;;;1.13;;
70838;SDS011;58464;52.298;4.852;2022-09-03T03:48:55;4.72;;;1.15;;
70838;SDS011;58464;52.298;4.852;2022-09-03T03:51:20;2.25;;;1.20;;
70838;SDS011;58464;52.298;4.852;2022-09-03T03:53:45;7.82;;;2.13;;
70838;SDS011;58464;52.298;4.852;2022-09-03T03:56:12;5.22;;;1.25;;
70838;SDS011;58464;52.298;4.852;2022-09-03T03:58:40;5.95;;;1.40;;
70838;SDS011;58464;52.298;4.852;2022-09-03T04:01:09;1.33;;;1.02;;
70838;SDS011;58464;52.298;4.852;2022-09-03T04:03:45;3.53;;;1.17;;
70838;SDS011;58464;52.298;4.852;2022-09-03T04:06:11;4.18;;;1.25;;
70838;SDS011;58464;52.298;4.852;2022-09-03T04:08:39;5.13;;;1.42;;
70838;SDS011;58464;52.298;4.852;2022-09-03T04:11:07;5.18;;;1.20;;
70838;SDS011;58464;52.298;4.852;2022-09-03T04:13:36;2.15;;;1.10;;
70838;SDS011;58464;52.298;4.852;2022-09-03T04:16:03;6.35;;;1.50;;
70838;SDS011;58464;52.298;4.852;2022-09-03T04:18:31;1.00;;;0.80;;
70838;SDS011;58464;52.298;4.852;2022-09-03T04:21:04;5.47;;;1.00;;
70838;SDS011;58464;52.298;4.852;2022-09-03T04:23:33;3.08;;;0.95;;
70838;SDS011;58464;52.298;4.852;2022-09-03T04:26:00;3.40;;;1.13;;
70838;SDS011;58464;52.298;4.852;2022-09-03T04:28:26;3.67;;;1.15;;
70838;SDS011;58464;52.298;4.852;2022-09-03T04:30:52;7.57;;;1.38;;
70838;SDS011;58464;52.298;4.852;2022-09-03T04:33:18;3.05;;;1.65;;
70838;SDS011;58464;52.298;4.852;2022-09-03T04:35:43;1.40;;;1.20;;
70838;SDS011;58464;52.298;4.852;2022-09-03T04:38:09;3.03;;;1.05;;
70838;SDS011;58464;52.298;4.852;2022-09-03T04:40:35;2.03;;;1.23;;
70838;SDS011;58464;52.298;4.852;2022-09-03T04:43:01;4.80;;;1.00;;
70838;SDS011;58464;52.298;4.852;2022-09-03T04:45:27;2.13;;;1.35;;
70838;SDS011;58464;52.298;4.852;2022-09-03T04:47:59;4.40;;;1.35;;
70838;SDS011;58464;52.298;4.852;2022-09-03T04:50:28;2.80;;;1.02;;
70838;SDS011;58464;52.298;4.852;2022-09-03T04:52:59;2.00;;;0.98;;
70838;SDS011;58464;52.298;4.852;2022-09-03T04:55:28;3.20;;;1.40;;
70838;SDS011;58464;52.298;4.852;2022-09-03T04:57:58;4.78;;;1.27;;
70838;SDS011;58464;52.298;4.852;2022-09-03T05:00:23;3.80;;;1.30;;
70838;SDS011;58464;52.298;4.852;2022-09-03T05:02:49;2.65;;;1.38;;
70838;SDS011;58464;52.298;4.852;2022-09-03T05:05:16;2.92;;;1.10;;
70838;SDS011;58464;52.298;4.852;2022-09-03T05:07:41;3.80;;;1.20;;
70838;SDS011;58464;52.298;4.852;2022-09-03T05:10:08;1.60;;;1.08;;
70838;SDS011;58464;52.298;4.852;2022-09-03T05:12:40;2.95;;;1.20;;
70838;SDS011;58464;52.298;4.852;2022-09-03T05:15:06;4.90;;;1.10;;
70838;SDS011;58464;52.298;4.852;2022-09-03T05:17:32;6.63;;;1.23;;
70838;SDS011;58464;52.298;4.852;2022-09-03T05:19:57;3.70;;;1.33;;
70838;SDS011;58464;52.298;4.852;2022-09-03T05:22:23;5.30;;;1.42;;
70838;SDS011;58464;52.298;4.852;2022-09-03T05:24:48;3.22;;;1.17;;
70838;SDS011;58464;52.298;4.852;2022-09-03T05:27:15;1.88;;;1.13;;
70838;SDS011;58464;52.298;4.852;2022-09-03T05:29:42;2.65;;;1.48;;
70838;SDS011;58464;52.298;4.852;2022-09-03T05:32:08;3.67;;;1.17;;
70838;SDS011;58464;52.298;4.852;2022-09-03T05:34:34;4.05;;;1.17;;
70838;SDS011;58464;52.298;4.852;2022-09-03T05:36:59;1.23;;;0.80;;
70838;SDS011;58464;52.298;4.852;2022-09-03T05:39:24;1.60;;;1.10;;
70838;SDS011;58464;52.298;4.852;2022-09-03T05:41:50;3.05;;;1.67;;
70838;SDS011;58464;52.298;4.852;2022-09-03T05:44:16;7.28;;;1.58;;
70838;SDS011;58464;52.298;4.852;2022-09-03T05:46:42;1.65;;;1.00;;
70838;SDS011;58464;52.298;4.852;2022-09-03T05:49:07;2.53;;;1.17;;
70838;SDS011;58464;52.298;4.852;2022-09-03T05:51:33;3.33;;;1.13;;
70838;SDS011;58464;52.298;4.852;2022-09-03T05:54:00;4.90;;;1.05;;
70838;SDS011;58464;52.298;4.852;2022-09-03T05:56:27;3.08;;;0.98;;
70838;SDS011;58464;52.298;4.852;2022-09-03T05:58:58;4.05;;;1.20;;
70838;SDS011;58464;52.298;4.852;2022-09-03T06:01:29;2.25;;;1.00;;
70838;SDS011;58464;52.298;4.852;2022-09-03T06:06:30;4.72;;;1.30;;
70838;SDS011;58464;52.298;4.852;2022-09-03T06:09:00;4.60;;;1.10;;
70838;SDS011;58464;52.298;4.852;2022-09-03T06:11:31;1.58;;;0.95;;
70838;SDS011;58464;52.298;4.852;2022-09-03T06:13:59;2.80;;;1.10;;
70838;SDS011;58464;52.298;4.852;2022-09-03T06:16:25;6.53;;;1.08;;
70838;SDS011;58464;52.298;4.852;2022-09-03T06:18:52;1.48;;;0.85;;
70838;SDS011;58464;52.298;4.852;2022-09-03T06:21:20;3.78;;;1.30;;
70838;SDS011;58464;52.298;4.852;2022-09-03T06:23:48;2.03;;;0.95;;
70838;SDS011;58464;52.298;4.852;2022-09-03T06:26:15;3.00;;;1.30;;
70838;SDS011;58464;52.298;4.852;2022-09-03T06:28:43;2.25;;;1.30;;
70838;SDS011;58464;52.298;4.852;2022-09-03T06:31:10;6.95;;;1.10;;
70838;SDS011;58464;52.298;4.852;2022-09-03T06:33:37;4.07;;;1.27;;
70838;SDS011;58464;52.298;4.852;2022-09-03T06:36:06;2.58;;;1.10;;
70838;SDS011;58464;52.298;4.852;2022-09-03T06:38:34;8.48;;;1.30;;
70838;SDS011;58464;52.298;4.852;2022-09-03T06:41:01;2.63;;;1.15;;
70838;SDS011;58464;52.298;4.852;2022-09-03T06:43:38;5.18;;;1.05;;
70838;SDS011;58464;52.298;4.852;2022-09-03T06:46:12;1.83;;;1.33;;
70838;SDS011;58464;52.298;4.852;2022-09-03T06:48:39;5.43;;;1.13;;
70838;SDS011;58464;52.298;4.852;2022-09-03T06:51:06;5.20;;;1.08;;
70838;SDS011;58464;52.298;4.852;2022-09-03T06:53:37;2.63;;;0.90;;
70838;SDS011;58464;52.298;4.852;2022-09-03T06:56:05;3.40;;;1.20;;
70838;SDS011;58464;52.298;4.852;2022-09-03T06:58:34;2.92;;;1.23;;
70838;SDS011;58464;52.298;4.852;2022-09-03T07:01:05;3.60;;;1.00;;
70838;SDS011;58464;52.298;4.852;2022-09-03T07:03:32;5.00;;;1.25;;
70838;SDS011;58464;52.298;4.852;2022-09-03T07:05:59;3.95;;;0.95;;
70838;SDS011;58464;52.298;4.852;2022-09-03T07:08:25;3.30;;;0.88;;
70838;SDS011;58464;52.298;4.852;2022-09-03T07:10:51;7.30;;;1.20;;
70838;SDS011;58464;52.298;4.852;2022-09-03T07:13:16;2.03;;;0.93;;
70838;SDS011;58464;52.298;4.852;2022-09-03T07:15:43;5.60;;;1.00;;
70838;SDS011;58464;52.298;4.852;2022-09-03T07:18:09;2.43;;;1.10;;
70838;SDS011;58464;52.298;4.852;2022-09-03T07:20:34;4.22;;;1.20;;
70838;SDS011;58464;52.298;4.852;2022-09-03T07:23:00;4.57;;;1.25;;
70838;SDS011;58464;52.298;4.852;2022-09-03T07:25:25;4.75;;;1.95;;
70838;SDS011;58464;52.298;4.852;2022-09-03T07:27:51;5.43;;;1.40;;
70838;SDS011;58464;52.298;4.852;2022-09-03T07:30:16;4.28;;;0.82;;
70838;SDS011;58464;52.298;4.852;2022-09-03T07:32:44;5.10;;;0.90;;
70838;SDS011;58464;52.298;4.852;2022-09-03T07:35:10;2.35;;;0.90;;
70838;SDS011;58464;52.298;4.852;2022-09-03T07:37:38;3.85;;;0.90;;
70838;SDS011;58464;52.298;4.852;2022-09-03T07:40:05;2.13;;;1.20;;
70838;SDS011;58464;52.298;4.852;2022-09-03T07:42:31;1.80;;;1.00;;
70838;SDS011;58464;52.298;4.852;2022-09-03T07:44:57;4.68;;;1.25;;
70838;SDS011;58464;52.298;4.852;2022-09-03T07:47:23;5.80;;;1.30;;
70838;SDS011;58464;52.298;4.852;2022-09-03T07:49:50;3.38;;;1.20;;
70838;SDS011;58464;52.298;4.852;2022-09-03T07:52:15;3.05;;;0.90;;
70838;SDS011;58464;52.298;4.852;2022-09-03T07:54:40;1.73;;;0.85;;
70838;SDS011;58464;52.298;4.852;2022-09-03T07:57:06;3.40;;;1.00;;
70838;SDS011;58464;52.298;4.852;2022-09-03T07:59:31;2.92;;;1.08;;
70838;SDS011;58464;52.298;4.852;2022-09-03T08:01:57;1.80;;;0.80;;
70838;SDS011;58464;52.298;4.852;2022-09-03T08:04:22;4.88;;;1.20;;
70838;SDS011;58464;52.298;4.852;2022-09-03T08:06:48;2.97;;;0.82;;
70838;SDS011;58464;52.298;4.852;2022-09-03T08:09:13;4.78;;;1.02;;
70838;SDS011;58464;52.298;4.852;2022-09-03T08:11:39;2.75;;;1.40;;
70838;SDS011;58464;52.298;4.852;2022-09-03T08:14:07;3.85;;;1.27;;
70838;SDS011;58464;52.298;4.852;2022-09-03T08:16:36;2.05;;;1.02;;
70838;SDS011;58464;52.298;4.852;2022-09-03T08:19:03;3.88;;;1.30;;
70838;SDS011;58464;52.298;4.852;2022-09-03T08:21:29;2.13;;;1.20;;
70838;SDS011;58464;52.298;4.852;2022-09-03T08:23:56;1.73;;;1.08;;
70838;SDS011;58464;52.298;4.852;2022-09-03T08:26:34;2.10;;;0.95;;
70838;SDS011;58464;52.298;4.852;2022-09-03T08:29:03;9.50;;;1.65;;
70838;SDS011;58464;52.298;4.852;2022-09-03T08:31:29;5.22;;;1.60;;
70838;SDS011;58464;52.298;4.852;2022-09-03T08:33:57;5.80;;;1.27;;
70838;SDS011;58464;52.298;4.852;2022-09-03T08:38:50;7.40;;;1.25;;
70838;SDS011;58464;52.298;4.852;2022-09-03T08:41:20;5.32;;;1.55;;
70838;SDS011;58464;52.298;4.852;2022-09-03T08:46:53;1.83;;;1.17;;
70838;SDS011;58464;52.298;4.852;2022-09-03T08:49:33;3.38;;;1.50;;
70838;SDS011;58464;52.298;4.852;2022-09-03T08:54:48;4.50;;;1.33;;
70838;SDS011;58464;52.298;4.852;2022-09-03T08:57:15;7.50;;;1.70;;
70838;SDS011;58464;52.298;4.852;2022-09-03T08:59:44;9.65;;;1.20;;
70838;SDS011;58464;52.298;4.852;2022-09-03T09:02:18;8.48;;;1.38;;
70838;SDS011;58464;52.298;4.852;2022-09-03T09:07:29;9.13;;;1.50;;
70838;SDS011;58464;52.298;4.852;2022-09-03T09:10:09;7.25;;;1.50;;
70838;SDS011;58464;52.298;4.852;2022-09-03T09:21:14;29.13;;;1.70;;
70838;SDS011;58464;52.298;4.852;2022-09-03T09:23:45;3.35;;;1.27;;
70838;SDS011;58464;52.298;4.852;2022-09-03T09:26:14;4.53;;;1.67;;
70838;SDS011;58464;52.298;4.852;2022-09-03T09:28:41;8.05;;;1.20;;
70838;SDS011;58464;52.298;4.852;2022-09-03T09:31:09;5.00;;;1.20;;
70838;SDS011;58464;52.298;4.852;2022-09-03T09:33:40;2.63;;;1.20;;
70838;SDS011;58464;52.298;4.852;2022-09-03T09:36:06;6.47;;;1.27;;
70838;SDS011;58464;52.298;4.852;2022-09-03T09:38:43;1.05;;;0.95;;
70838;SDS011;58464;52.298;4.852;2022-09-03T09:41:17;9.60;;;1.60;;
70838;SDS011;58464;52.298;4.852;2022-09-03T09:43:58;2.28;;;1.30;;
70838;SDS011;58464;52.298;4.852;2022-09-03T09:46:27;2.15;;;1.42;;
70838;SDS011;58464;52.298;4.852;2022-09-03T09:49:21;8.73;;;1.30;;
70838;SDS011;58464;52.298;4.852;2022-09-03T09:51:58;2.67;;;1.45;;
70838;SDS011;58464;52.298;4.852;2022-09-03T09:54:25;5.07;;;1.67;;
70838;SDS011;58464;52.298;4.852;2022-09-03T09:57:00;3.15;;;1.38;;
70838;SDS011;58464;52.298;4.852;2022-09-03T09:59:28;4.80;;;1.58;;
70838;SDS011;58464;52.298;4.852;2022-09-03T10:02:07;3.58;;;1.35;;
70838;SDS011;58464;52.298;4.852;2022-09-03T10:04:35;5.25;;;1.30;;
70838;SDS011;58464;52.298;4.852;2022-09-03T10:09:43;2.50;;;1.48;;
70838;SDS011;58464;52.298;4.852;2022-09-03T10:12:27;4.70;;;1.52;;
70838;SDS011;58464;52.298;4.852;2022-09-03T10:15:04;5.43;;;1.65;;
70838;SDS011;58464;52.298;4.852;2022-09-03T10:17:46;6.43;;;1.45;;
70838;SDS011;58464;52.298;4.852;2022-09-03T10:23:06;6.50;;;1.58;;
70838;SDS011;58464;52.298;4.852;2022-09-03T10:28:08;6.03;;;1.20;;
70838;SDS011;58464;52.298;4.852;2022-09-03T10:30:44;3.13;;;1.02;;
70838;SDS011;58464;52.298;4.852;2022-09-03T10:33:15;2.63;;;1.02;;
70838;SDS011;58464;52.298;4.852;2022-09-03T10:35:51;4.75;;;1.40;;
70838;SDS011;58464;52.298;4.852;2022-09-03T10:38:27;6.57;;;1.63;;
70838;SDS011;58464;52.298;4.852;2022-09-03T10:46:25;5.30;;;1.50;;
70838;SDS011;58464;52.298;4.852;2022-09-03T10:51:28;2.15;;;1.20;;
70838;SDS011;58464;52.298;4.852;2022-09-03T11:07:24;2.55;;;1.20;;
70838;SDS011;58464;52.298;4.852;2022-09-03T11:12:22;4.07;;;1.75;;
70838;SDS011;58464;52.298;4.852;2022-09-03T11:14:58;3.63;;;1.17;;
70838;SDS011;58464;52.298;4.852;2022-09-03T11:17:31;3.35;;;1.35;;
70838;SDS011;58464;52.298;4.852;2022-09-03T11:20:16;3.70;;;1.13;;
70838;SDS011;58464;52.298;4.852;2022-09-03T11:22:52;5.07;;;1.02;;
70838;SDS011;58464;52.298;4.852;2022-09-03T11:25:22;6.32;;;1.50;;
70838;SDS011;58464;52.298;4.852;2022-09-03T11:30:36;5.68;;;1.40;;
70838;SDS011;58464;52.298;4.852;2022-09-03T11:33:22;2.22;;;1.17;;
70838;SDS011;58464;52.298;4.852;2022-09-03T11:35:54;4.43;;;1.27;;
70838;SDS011;58464;52.298;4.852;2022-09-03T11:38:22;3.92;;;1.48;;
70838;SDS011;58464;52.298;4.852;2022-09-03T11:41:10;5.07;;;1.40;;
70838;SDS011;58464;52.298;4.852;2022-09-03T11:43:47;3.58;;;1.35;;
70838;SDS011;58464;52.298;4.852;2022-09-03T11:48:42;1.25;;;0.82;;
70838;SDS011;58464;52.298;4.852;2022-09-03T11:51:18;5.13;;;1.60;;
70838;SDS011;58464;52.298;4.852;2022-09-03T11:53:56;4.78;;;1.63;;
70838;SDS011;58464;52.298;4.852;2022-09-03T11:56:31;2.70;;;1.25;;
70838;SDS011;58464;52.298;4.852;2022-09-03T12:01:26;3.15;;;1.58;;
70838;SDS011;58464;52.298;4.852;2022-09-03T12:04:03;2.85;;;1.30;;
70838;SDS011;58464;52.298;4.852;2022-09-03T12:15:02;8.02;;;1.15;;
70838;SDS011;58464;52.298;4.852;2022-09-03T12:20:01;1.90;;;1.23;;
70838;SDS011;58464;52.298;4.852;2022-09-03T12:22:28;2.67;;;1.38;;
70838;SDS011;58464;52.298;4.852;2022-09-03T12:24:55;4.47;;;1.65;;
70838;SDS011;58464;52.298;4.852;2022-09-03T12:27:32;2.10;;;1.08;;
70838;SDS011;58464;52.298;4.852;2022-09-03T12:30:01;4.78;;;1.55;;
70838;SDS011;58464;52.298;4.852;2022-09-03T12:32:33;1.65;;;1.00;;
70838;SDS011;58464;52.298;4.852;2022-09-03T12:35:16;3.60;;;1.15;;
70838;SDS011;58464;52.298;4.852;2022-09-03T12:37:50;2.85;;;1.08;;
70838;SDS011;58464;52.298;4.852;2022-09-03T12:40:20;11.35;;;1.50;;
70838;SDS011;58464;52.298;4.852;2022-09-03T12:42:48;6.65;;;2.38;;
70838;SDS011;58464;52.298;4.852;2022-09-03T12:45:16;7.63;;;4.22;;
70838;SDS011;58464;52.298;4.852;2022-09-03T12:47:44;6.38;;;1.20;;
70838;SDS011;58464;52.298;4.852;2022-09-03T12:50:13;4.60;;;1.40;;
70838;SDS011;58464;52.298;4.852;2022-09-03T13:00:43;6.30;;;1.05;;
70838;SDS011;58464;52.298;4.852;2022-09-03T13:03:22;2.70;;;1.55;;
70838;SDS011;58464;52.298;4.852;2022-09-03T13:06:12;3.15;;;1.60;;
70838;SDS011;58464;52.298;4.852;2022-09-03T13:08:43;3.28;;;1.65;;
70838;SDS011;58464;52.298;4.852;2022-09-03T13:11:14;3.60;;;1.20;;
70838;SDS011;58464;52.298;4.852;2022-09-03T13:13:48;6.82;;;1.30;;
70838;SDS011;58464;52.298;4.852;2022-09-03T13:19:16;6.85;;;1.00;;
70838;SDS011;58464;52.298;4.852;2022-09-03T13:30:03;4.72;;;1.33;;
70838;SDS011;58464;52.298;4.852;2022-09-03T13:32:37;4.90;;;1.40;;
70838;SDS011;58464;52.298;4.852;2022-09-03T13:40:59;4.70;;;1.25;;
70838;SDS011;58464;52.298;4.852;2022-09-03T13:44:13;3.17;;;1.10;;
70838;SDS011;58464;52.298;4.852;2022-09-03T13:46:53;5.20;;;1.23;;
70838;SDS011;58464;52.298;4.852;2022-09-03T13:49:26;3.58;;;1.20;;
70838;SDS011;58464;52.298;4.852;2022-09-03T13:55:30;4.00;;;1.70;;
70838;SDS011;58464;52.298;4.852;2022-09-03T14:00:33;4.32;;;1.02;;
70838;SDS011;58464;52.298;4.852;2022-09-03T14:03:07;8.20;;;1.15;;
70838;SDS011;58464;52.298;4.852;2022-09-03T14:17:00;5.90;;;1.00;;
70838;SDS011;58464;52.298;4.852;2022-09-03T14:22:17;8.27;;;1.70;;
70838;SDS011;58464;52.298;4.852;2022-09-03T14:24:48;6.70;;;1.35;;
70838;SDS011;58464;52.298;4.852;2022-09-03T14:27:21;3.58;;;1.25;;
70838;SDS011;58464;52.298;4.852;2022-09-03T14:30:04;8.40;;;1.50;;
70838;SDS011;58464;52.298;4.852;2022-09-03T14:32:39;6.43;;;1.20;;
70838;SDS011;58464;52.298;4.852;2022-09-03T14:35:29;6.35;;;1.63;;
70838;SDS011;58464;52.298;4.852;2022-09-03T14:38:47;4.57;;;1.60;;
70838;SDS011;58464;52.298;4.852;2022-09-03T14:41:05;3.40;;;1.23;;
70838;SDS011;58464;52.298;4.852;2022-09-03T14:43:45;4.50;;;1.30;;
70838;SDS011;58464;52.298;4.852;2022-09-03T14:52:10;4.15;;;1.35;;
70838;SDS011;58464;52.298;4.852;2022-09-03T14:55:01;10.73;;;1.42;;
70838;SDS011;58464;52.298;4.852;2022-09-03T14:57:41;8.30;;;1.58;;
70838;SDS011;58464;52.298;4.852;2022-09-03T15:00:31;4.35;;;1.15;;
70838;SDS011;58464;52.298;4.852;2022-09-03T15:03:08;5.50;;;1.90;;
70838;SDS011;58464;52.298;4.852;2022-09-03T15:06:01;3.50;;;1.50;;
70838;SDS011;58464;52.298;4.852;2022-09-03T15:11:32;5.68;;;1.48;;
70838;SDS011;58464;52.298;4.852;2022-09-03T15:22:08;4.90;;;1.80;;
70838;SDS011;58464;52.298;4.852;2022-09-03T15:24:52;3.60;;;1.40;;
70838;SDS011;58464;52.298;4.852;2022-09-03T15:27:30;4.35;;;2.08;;
70838;SDS011;58464;52.298;4.852;2022-09-03T15:30:16;2.45;;;1.30;;
70838;SDS011;58464;52.298;4.852;2022-09-03T15:32:57;5.18;;;1.30;;
70838;SDS011;58464;52.298;4.852;2022-09-03T15:41:07;2.45;;;1.30;;
70838;SDS011;58464;52.298;4.852;2022-09-03T15:43:41;5.72;;;1.90;;
70838;SDS011;58464;52.298;4.852;2022-09-03T15:46:23;4.38;;;2.08;;
70838;SDS011;58464;52.298;4.852;2022-09-03T15:49:05;3.42;;;1.60;;
70838;SDS011;58464;52.298;4.852;2022-09-03T15:54:20;9.68;;;1.90;;
70838;SDS011;58464;52.298;4.852;2022-09-03T15:57:00;4.68;;;2.92;;
70838;SDS011;58464;52.298;4.852;2022-09-03T15:59:38;4.70;;;1.98;;
70838;SDS011;58464;52.298;4.852;2022-09-03T16:04:41;10.30;;;3.05;;
70838;SDS011;58464;52.298;4.852;2022-09-03T16:07:30;14.90;;;7.38;;
70838;SDS011;58464;52.298;4.852;2022-09-03T16:12:36;5.45;;;3.10;;
70838;SDS011;58464;52.298;4.852;2022-09-03T16:15:10;8.60;;;5.03;;
70838;SDS011;58464;52.298;4.852;2022-09-03T16:17:52;5.43;;;3.80;;
70838;SDS011;58464;52.298;4.852;2022-09-03T16:20:42;5.90;;;3.63;;
70838;SDS011;58464;52.298;4.852;2022-09-03T16:25:48;4.63;;;3.03;;
70838;SDS011;58464;52.298;4.852;2022-09-03T16:28:27;12.50;;;3.45;;
70838;SDS011;58464;52.298;4.852;2022-09-03T16:53:12;8.77;;;4.63;;
70838;SDS011;58464;52.298;4.852;2022-09-03T16:58:29;9.93;;;2.53;;
70838;SDS011;58464;52.298;4.852;2022-09-03T17:01:07;4.45;;;2.83;;
70838;SDS011;58464;52.298;4.852;2022-09-03T17:03:56;5.50;;;3.00;;
70838;SDS011;58464;52.298;4.852;2022-09-03T17:17:50;5.35;;;1.95;;
70838;SDS011;58464;52.298;4.852;2022-09-03T17:29:19;5.60;;;2.38;;
70838;SDS011;58464;52.298;4.852;2022-09-03T17:43:17;7.75;;;2.35;;
70838;SDS011;58464;52.298;4.852;2022-09-03T17:48:47;7.43;;;3.20;;
70838;SDS011;58464;52.298;4.852;2022-09-03T17:54:11;9.23;;;3.55;;
70838;SDS011;58464;52.298;4.852;2022-09-03T18:05:00;3.40;;;2.13;;
70838;SDS011;58464;52.298;4.852;2022-09-03T18:08:06;8.60;;;2.00;;
70838;SDS011;58464;52.298;4.852;2022-09-03T18:16:29;15.30;;;2.28;;
70838;SDS011;58464;52.298;4.852;2022-09-03T18:19:01;6.20;;;2.17;;
70838;SDS011;58464;52.298;4.852;2022-09-03T18:21:34;7.63;;;3.03;;
70838;SDS011;58464;52.298;4.852;2022-09-03T18:24:42;5.78;;;2.92;;
70838;SDS011;58464;52.298;4.852;2022-09-03T18:30:23;7.68;;;3.42;;
70838;SDS011;58464;52.298;4.852;2022-09-03T18:33:08;9.10;;;4.00;;
70838;SDS011;58464;52.298;4.852;2022-09-03T18:35:52;10.70;;;3.42;;
70838;SDS011;58464;52.298;4.852;2022-09-03T18:38:37;13.23;;;3.30;;
70838;SDS011;58464;52.298;4.852;2022-09-03T18:52:58;11.20;;;5.63;;
70838;SDS011;58464;52.298;4.852;2022-09-03T18:56:08;14.73;;;7.05;;
70838;SDS011;58464;52.298;4.852;2022-09-03T19:05:27;17.35;;;8.55;;
70838;SDS011;58464;52.298;4.852;2022-09-03T19:08:24;16.33;;;7.88;;
70838;SDS011;58464;52.298;4.852;2022-09-03T19:11:25;15.60;;;8.68;;
70838;SDS011;58464;52.298;4.852;2022-09-03T19:17:36;13.98;;;5.68;;
70838;SDS011;58464;52.298;4.852;2022-09-03T19:20:44;19.15;;;8.60;;
70838;SDS011;58464;52.298;4.852;2022-09-03T19:23:40;12.32;;;3.97;;
70838;SDS011;58464;52.298;4.852;2022-09-03T19:26:39;5.90;;;3.40;;
70838;SDS011;58464;52.298;4.852;2022-09-03T19:29:54;5.25;;;2.60;;
70838;SDS011;58464;52.298;4.852;2022-09-03T19:38:48;9.13;;;4.75;;
70838;SDS011;58464;52.298;4.852;2022-09-03T19:41:47;15.05;;;6.88;;
70838;SDS011;58464;52.298;4.852;2022-09-03T19:50:59;9.55;;;4.25;;
70838;SDS011;58464;52.298;4.852;2022-09-03T19:53:56;34.15;;;17.45;;
70838;SDS011;58464;52.298;4.852;2022-09-03T19:56:42;17.23;;;6.43;;
70838;SDS011;58464;52.298;4.852;2022-09-03T19:59:28;12.65;;;5.28;;
70838;SDS011;58464;52.298;4.852;2022-09-03T20:02:19;15.10;;;6.85;;
70838;SDS011;58464;52.298;4.852;2022-09-03T20:05:03;5.75;;;2.85;;
70838;SDS011;58464;52.298;4.852;2022-09-03T20:07:53;5.22;;;3.08;;
70838;SDS011;58464;52.298;4.852;2022-09-03T20:10:39;10.27;;;2.50;;
70838;SDS011;58464;52.298;4.852;2022-09-03T20:13:08;12.48;;;2.55;;
70838;SDS011;58464;52.298;4.852;2022-09-03T20:23:51;9.13;;;2.00;;
70838;SDS011;58464;52.298;4.852;2022-09-03T20:39:56;3.90;;;1.98;;
70838;SDS011;58464;52.298;4.852;2022-09-03T20:45:18;5.03;;;2.15;;
70838;SDS011;58464;52.298;4.852;2022-09-03T20:50:51;7.72;;;2.13;;
70838;SDS011;58464;52.298;4.852;2022-09-03T20:53:30;3.33;;;1.85;;
70838;SDS011;58464;52.298;4.852;2022-09-03T21:04:28;9.38;;;2.47;;
70838;SDS011;58464;52.298;4.852;2022-09-03T21:09:48;8.00;;;2.22;;
70838;SDS011;58464;52.298;4.852;2022-09-03T21:12:54;5.18;;;1.63;;
70838;SDS011;58464;52.298;4.852;2022-09-03T21:24:20;4.40;;;2.78;;
70838;SDS011;58464;52.298;4.852;2022-09-03T21:26:50;8.57;;;2.85;;
70838;SDS011;58464;52.298;4.852;2022-09-03T21:29:23;6.28;;;3.65;;
70838;SDS011;58464;52.298;4.852;2022-09-03T21:37:11;9.73;;;3.72;;
70838;SDS011;58464;52.298;4.852;2022-09-03T21:39:41;8.35;;;2.92;;
70838;SDS011;58464;52.298;4.852;2022-09-03T21:47:31;8.15;;;2.00;;